Time;durP1;ratioP1;P1;durP2;ratioP2;P2;SDS_P1;SDS_P2;PMS_P1;PMS_P2;Temp;Humidity;BMP_temperature;BMP_pressure;BME280_temperature;BME280_humidity;BME280_pressure;Samples;Min_cycle;Max_cycle;Signal;HPM_P1;HPM_P2
2021/12/31 00:00:41;;;;;;;2.42;0.77;;;;;;;;;;5076443;28;20028;-79
2021/12/31 00:03:06;;;;;;;1.52;1.00;;;;;;;;;;5079494;28;20024;-81
2021/12/31 00:05:31;;;;;;;1.95;0.90;;;;;;;;;;5078938;28;20027;-80
2021/12/31 00:07:57;;;;;;;1.45;0.73;;;;;;;;;;5079749;28;20520;-79
2021/12/31 00:10:22;;;;;;;1.48;0.82;;;;;;;;;;5080146;28;20070;-78
2021/12/31 00:12:47;;;;;;;1.45;0.70;;;;;;;;;;5079188;28;20025;-78
2021/12/31 00:15:13;;;;;;;0.63;0.60;;;;;;;;;;5079738;28;20035;-79
2021/12/31 00:17:39;;;;;;;2.47;0.60;;;;;;;;;;5077845;28;20257;-79
2021/12/31 00:20:11;;;;;;;1.52;0.73;;;;;;;;;;5078721;28;20418;-80
2021/12/31 00:25:08;;;;;;;0.60;0.57;;;;;;;;;;5079188;28;20496;-79
2021/12/31 00:27:33;;;;;;;2.53;0.65;;;;;;;;;;5077317;28;20032;-78
2021/12/31 00:29:58;;;;;;;0.93;0.70;;;;;;;;;;5078359;28;20478;-79
2021/12/31 00:32:24;;;;;;;0.60;0.60;;;;;;;;;;5078831;28;20275;-78
2021/12/31 00:34:49;;;;;;;1.25;0.60;;;;;;;;;;5079531;28;20399;-81
2021/12/31 00:37:25;;;;;;;0.65;0.60;;;;;;;;;;5077821;28;20059;-76
2021/12/31 00:39:51;;;;;;;1.30;0.70;;;;;;;;;;5078368;28;20032;-78
2021/12/31 00:42:16;;;;;;;0.50;0.50;;;;;;;;;;5078244;28;20401;-78
2021/12/31 00:44:41;;;;;;;1.10;0.60;;;;;;;;;;5077963;28;20623;-79
2021/12/31 00:47:06;;;;;;;0.60;0.60;;;;;;;;;;5076936;28;20024;-78
2021/12/31 00:49:32;;;;;;;0.93;0.70;;;;;;;;;;5078367;28;20311;-78
2021/12/31 00:51:57;;;;;;;1.23;0.53;;;;;;;;;;5077139;28;20268;-77
2021/12/31 00:54:22;;;;;;;0.50;0.50;;;;;;;;;;5078968;28;20289;-78
2021/12/31 00:56:47;;;;;;;1.10;0.43;;;;;;;;;;5077833;28;20261;-79
2021/12/31 00:59:12;;;;;;;1.10;0.60;;;;;;;;;;5078792;28;20352;-77
2021/12/31 01:01:38;;;;;;;0.70;0.60;;;;;;;;;;5076793;28;20308;-78
2021/12/31 01:04:03;;;;;;;2.83;0.60;;;;;;;;;;5078856;28;20249;-77
2021/12/31 01:06:28;;;;;;;1.02;0.70;;;;;;;;;;5078907;28;20097;-77
2021/12/31 01:08:53;;;;;;;0.77;0.68;;;;;;;;;;5079071;28;20078;-78
2021/12/31 01:11:19;;;;;;;2.03;0.60;;;;;;;;;;5077893;28;20055;-77
2021/12/31 01:13:55;;;;;;;0.70;0.60;;;;;;;;;;5078145;28;20277;-78
2021/12/31 01:16:23;;;;;;;0.60;0.60;;;;;;;;;;5077965;28;20028;-78
2021/12/31 01:21:14;;;;;;;0.67;0.50;;;;;;;;;;5077831;28;20032;-79
2021/12/31 01:23:40;;;;;;;0.98;0.40;;;;;;;;;;5076868;28;20808;-78
2021/12/31 01:26:05;;;;;;;0.93;0.52;;;;;;;;;;5076577;28;20056;-78
2021/12/31 01:28:30;;;;;;;1.40;0.70;;;;;;;;;;5078262;28;20028;-78
2021/12/31 01:30:56;;;;;;;0.68;0.60;;;;;;;;;;5077812;28;20264;-79
2021/12/31 01:33:21;;;;;;;1.30;0.60;;;;;;;;;;5077007;28;20051;-78
2021/12/31 01:35:46;;;;;;;0.70;0.40;;;;;;;;;;5077879;28;20355;-77
2021/12/31 01:38:11;;;;;;;0.70;0.70;;;;;;;;;;5076493;28;20261;-79
2021/12/31 01:40:37;;;;;;;0.65;0.50;;;;;;;;;;5077990;28;20024;-77
2021/12/31 01:43:02;;;;;;;0.70;0.50;;;;;;;;;;5077263;28;20375;-79
2021/12/31 01:45:31;;;;;;;0.45;0.45;;;;;;;;;;5078760;28;20141;-77
2021/12/31 01:48:05;;;;;;;0.40;0.40;;;;;;;;;;5077981;28;20032;-78
2021/12/31 01:50:31;;;;;;;0.40;0.40;;;;;;;;;;5078213;28;20029;-79
2021/12/31 01:52:57;;;;;;;0.85;0.60;;;;;;;;;;5076869;28;20485;-78
2021/12/31 01:55:24;;;;;;;0.65;0.52;;;;;;;;;;5077501;28;20109;-79
2021/12/31 01:57:50;;;;;;;0.70;0.52;;;;;;;;;;5078164;28;20028;-78
2021/12/31 02:00:16;;;;;;;0.45;0.40;;;;;;;;;;5078647;28;20032;-80
2021/12/31 02:02:46;;;;;;;0.45;0.45;;;;;;;;;;5078936;28;20064;-78
2021/12/31 02:05:12;;;;;;;0.45;0.45;;;;;;;;;;5078104;28;20516;-80
2021/12/31 02:07:38;;;;;;;1.55;0.50;;;;;;;;;;5077891;28;20032;-77
2021/12/31 02:10:04;;;;;;;0.55;0.40;;;;;;;;;;5077859;28;20020;-77
2021/12/31 02:12:30;;;;;;;0.50;0.45;;;;;;;;;;5078631;28;20435;-79
2021/12/31 02:14:55;;;;;;;0.40;0.40;;;;;;;;;;5077626;28;20449;-79
2021/12/31 02:17:20;;;;;;;0.70;0.38;;;;;;;;;;5077257;28;20031;-79
2021/12/31 02:19:55;;;;;;;1.13;0.60;;;;;;;;;;5077521;28;20107;-80
2021/12/31 02:22:26;;;;;;;0.40;0.40;;;;;;;;;;5076313;28;20509;-79
2021/12/31 02:24:51;;;;;;;0.50;0.50;;;;;;;;;;5075992;28;20461;-78
2021/12/31 02:27:16;;;;;;;1.10;0.60;;;;;;;;;;5075647;28;20083;-78
2021/12/31 02:29:42;;;;;;;1.27;0.50;;;;;;;;;;5076536;28;20305;-79
2021/12/31 02:32:07;;;;;;;1.27;0.50;;;;;;;;;;5076938;28;20276;-78
2021/12/31 02:34:32;;;;;;;0.80;0.47;;;;;;;;;;5081318;28;20281;-78
2021/12/31 02:36:57;;;;;;;0.95;0.40;;;;;;;;;;5081549;28;20318;-78
2021/12/31 02:39:22;;;;;;;0.67;0.50;;;;;;;;;;5081772;28;20020;-79
2021/12/31 02:41:48;;;;;;;0.45;0.40;;;;;;;;;;5080369;28;20257;-78
2021/12/31 02:44:13;;;;;;;0.80;0.57;;;;;;;;;;5079130;28;20135;-78
2021/12/31 02:46:38;;;;;;;0.57;0.40;;;;;;;;;;5080339;28;20064;-79
2021/12/31 02:49:04;;;;;;;0.87;0.50;;;;;;;;;;5081759;28;20647;-78
2021/12/31 02:51:29;;;;;;;0.70;0.47;;;;;;;;;;5080374;28;20253;-78
2021/12/31 02:53:55;;;;;;;2.15;0.47;;;;;;;;;;5080364;28;20023;-78
2021/12/31 02:56:24;;;;;;;0.63;0.50;;;;;;;;;;5079821;28;20025;-78
2021/12/31 02:58:50;;;;;;;0.70;0.52;;;;;;;;;;5080437;28;20047;-78
2021/12/31 03:01:15;;;;;;;0.60;0.60;;;;;;;;;;5080969;28;20063;-79
2021/12/31 03:03:42;;;;;;;0.77;0.50;;;;;;;;;;5080836;28;20032;-77
2021/12/31 03:06:09;;;;;;;1.48;0.52;;;;;;;;;;5080484;28;20020;-78
2021/12/31 03:08:37;;;;;;;0.57;0.50;;;;;;;;;;5079888;28;20051;-79
2021/12/31 03:11:04;;;;;;;0.55;0.52;;;;;;;;;;5079388;28;20039;-79
2021/12/31 03:13:30;;;;;;;0.50;0.50;;;;;;;;;;5080511;28;20071;-77
2021/12/31 03:15:58;;;;;;;0.85;0.40;;;;;;;;;;5079004;28;20074;-79
2021/12/31 03:18:23;;;;;;;0.30;0.30;;;;;;;;;;5081046;28;20103;-77
2021/12/31 03:21:01;;;;;;;0.38;0.38;;;;;;;;;;5081196;28;20064;-80
2021/12/31 03:23:30;;;;;;;0.77;0.45;;;;;;;;;;5080535;28;20020;-78
2021/12/31 03:25:56;;;;;;;0.55;0.50;;;;;;;;;;5080610;28;20077;-79
2021/12/31 03:28:21;;;;;;;1.05;0.43;;;;;;;;;;5079653;28;20111;-78
2021/12/31 03:30:47;;;;;;;2.03;0.70;;;;;;;;;;5078739;28;20024;-78
2021/12/31 03:33:13;;;;;;;0.75;0.40;;;;;;;;;;5079400;28;20034;-77
2021/12/31 03:35:38;;;;;;;1.17;0.50;;;;;;;;;;5078115;28;20119;-79
2021/12/31 03:38:03;;;;;;;0.93;0.43;;;;;;;;;;5079760;28;20021;-78
2021/12/31 03:40:29;;;;;;;0.70;0.52;;;;;;;;;;5080638;28;20071;-79
2021/12/31 03:42:54;;;;;;;1.42;0.60;;;;;;;;;;5079962;28;20028;-78
2021/12/31 03:45:19;;;;;;;0.70;0.60;;;;;;;;;;5079226;28;20028;-78
2021/12/31 03:47:44;;;;;;;1.00;0.60;;;;;;;;;;5079526;28;20020;-79
2021/12/31 03:50:10;;;;;;;1.53;0.60;;;;;;;;;;5078014;28;20024;-78
2021/12/31 03:52:38;;;;;;;0.40;0.40;;;;;;;;;;5079724;28;20260;-79
2021/12/31 03:55:04;;;;;;;0.70;0.50;;;;;;;;;;5079846;28;20021;-78
2021/12/31 03:57:30;;;;;;;2.05;0.40;;;;;;;;;;5079220;28;20072;-78
2021/12/31 03:59:55;;;;;;;0.43;0.30;;;;;;;;;;5080319;28;20501;-79
2021/12/31 04:02:20;;;;;;;0.73;0.57;;;;;;;;;;5078637;28;20440;-79
2021/12/31 04:04:45;;;;;;;0.50;0.50;;;;;;;;;;5078449;28;20032;-80
2021/12/31 04:07:11;;;;;;;1.13;0.50;;;;;;;;;;5079121;28;20292;-78
2021/12/31 04:09:36;;;;;;;1.20;0.50;;;;;;;;;;5079826;28;20032;-77
2021/12/31 04:12:01;;;;;;;2.60;0.73;;;;;;;;;;5078923;28;20253;-80
2021/12/31 04:14:26;;;;;;;0.77;0.50;;;;;;;;;;5080692;28;20299;-78
2021/12/31 04:16:51;;;;;;;1.77;0.55;;;;;;;;;;5078936;28;20111;-78
2021/12/31 04:19:17;;;;;;;1.67;0.53;;;;;;;;;;5079353;28;20024;-77
2021/12/31 04:21:43;;;;;;;0.60;0.60;;;;;;;;;;5078034;28;20607;-79
2021/12/31 04:24:16;;;;;;;0.80;0.50;;;;;;;;;;5079486;28;20311;-79
2021/12/31 04:26:42;;;;;;;1.52;0.57;;;;;;;;;;5079446;28;20044;-79
2021/12/31 04:29:07;;;;;;;0.40;0.40;;;;;;;;;;5080175;28;20385;-80
2021/12/31 04:31:32;;;;;;;0.50;0.50;;;;;;;;;;5079819;28;20024;-80
2021/12/31 04:33:59;;;;;;;0.97;0.40;;;;;;;;;;5080164;28;20031;-80
2021/12/31 04:36:25;;;;;;;0.55;0.50;;;;;;;;;;5078325;28;20325;-79
2021/12/31 04:38:50;;;;;;;1.15;0.70;;;;;;;;;;5075398;28;20552;-77
2021/12/31 04:41:15;;;;;;;3.93;0.60;;;;;;;;;;5076418;28;20089;-80
2021/12/31 04:43:40;;;;;;;0.75;0.70;;;;;;;;;;5077888;28;20335;-80
2021/12/31 04:46:06;;;;;;;0.80;0.63;;;;;;;;;;5077829;28;20055;-80
2021/12/31 04:48:31;;;;;;;1.73;0.70;;;;;;;;;;5078599;28;20249;-80
2021/12/31 04:50:56;;;;;;;1.25;0.60;;;;;;;;;;5077910;28;20111;-80
2021/12/31 04:53:21;;;;;;;1.07;0.80;;;;;;;;;;5076046;28;20039;-79
2021/12/31 04:55:47;;;;;;;1.20;0.60;;;;;;;;;;5074206;28;20265;-80
2021/12/31 04:58:12;;;;;;;0.50;0.50;;;;;;;;;;5076397;28;20024;-79
2021/12/31 05:00:37;;;;;;;1.50;0.70;;;;;;;;;;5077496;28;20257;-77
2021/12/31 05:03:07;;;;;;;0.73;0.57;;;;;;;;;;5076996;28;20017;-78
2021/12/31 05:05:32;;;;;;;1.00;0.60;;;;;;;;;;5075598;28;20100;-79
2021/12/31 05:07:57;;;;;;;1.10;0.60;;;;;;;;;;5076358;28;20052;-79
2021/12/31 05:10:23;;;;;;;0.63;0.50;;;;;;;;;;5076243;28;20389;-80
2021/12/31 05:12:52;;;;;;;0.95;0.50;;;;;;;;;;5076471;28;20474;-79
2021/12/31 05:15:25;;;;;;;1.83;0.57;;;;;;;;;;5075965;28;20029;-78
2021/12/31 05:17:50;;;;;;;1.08;0.63;;;;;;;;;;5074524;28;20031;-80
2021/12/31 05:20:15;;;;;;;0.50;0.50;;;;;;;;;;5075846;28;20448;-78
2021/12/31 05:22:40;;;;;;;0.50;0.50;;;;;;;;;;5075780;28;20024;-78
2021/12/31 05:25:06;;;;;;;0.50;0.50;;;;;;;;;;5075785;28;20257;-80
2021/12/31 05:27:31;;;;;;;0.80;0.50;;;;;;;;;;5073843;28;20284;-80
2021/12/31 05:29:57;;;;;;;0.50;0.50;;;;;;;;;;5075842;28;20436;-78
2021/12/31 05:32:22;;;;;;;0.60;0.60;;;;;;;;;;5075205;28;20673;-80
2021/12/31 05:34:47;;;;;;;0.60;0.50;;;;;;;;;;5075382;28;20096;-79
2021/12/31 05:37:12;;;;;;;0.90;0.50;;;;;;;;;;5075440;28;20028;-79
2021/12/31 05:39:38;;;;;;;0.77;0.50;;;;;;;;;;5076136;28;20031;-78
2021/12/31 05:42:04;;;;;;;1.85;0.70;;;;;;;;;;5076001;28;20075;-79
2021/12/31 05:44:29;;;;;;;1.08;0.50;;;;;;;;;;5075326;28;20020;-80
2021/12/31 05:46:56;;;;;;;0.60;0.60;;;;;;;;;;5075159;28;20385;-79
2021/12/31 05:49:22;;;;;;;1.05;0.50;;;;;;;;;;5076211;28;20520;-79
2021/12/31 05:51:47;;;;;;;0.93;0.60;;;;;;;;;;5074498;28;20111;-78
2021/12/31 05:54:12;;;;;;;0.85;0.60;;;;;;;;;;5074513;28;20017;-79
2021/12/31 05:56:37;;;;;;;0.85;0.60;;;;;;;;;;5075668;28;20073;-78
2021/12/31 05:59:03;;;;;;;0.93;0.50;;;;;;;;;;5073937;28;20048;-79
2021/12/31 06:01:28;;;;;;;0.50;0.40;;;;;;;;;;5074287;28;20108;-79
2021/12/31 06:03:53;;;;;;;0.40;0.40;;;;;;;;;;5076058;28;20028;-79
2021/12/31 06:06:18;;;;;;;0.90;0.50;;;;;;;;;;5076249;28;20530;-79
2021/12/31 06:08:44;;;;;;;1.73;0.70;;;;;;;;;;5076060;28;20367;-79
2021/12/31 06:11:10;;;;;;;1.13;0.50;;;;;;;;;;5076122;28;20261;-78
2021/12/31 06:13:36;;;;;;;0.82;0.70;;;;;;;;;;5075854;28;20077;-79
2021/12/31 06:16:02;;;;;;;0.52;0.50;;;;;;;;;;5076316;28;20036;-80
2021/12/31 06:18:27;;;;;;;0.95;0.50;;;;;;;;;;5076896;28;20028;-79
2021/12/31 06:20:53;;;;;;;2.33;0.57;;;;;;;;;;5076194;28;20432;-80
2021/12/31 06:23:18;;;;;;;1.60;0.60;;;;;;;;;;5075879;28;20111;-78
2021/12/31 06:25:44;;;;;;;0.75;0.35;;;;;;;;;;5076433;28;20112;-79
2021/12/31 06:28:09;;;;;;;0.65;0.50;;;;;;;;;;5075642;28;20445;-78
2021/12/31 06:30:34;;;;;;;1.42;0.47;;;;;;;;;;5076204;28;20079;-79
2021/12/31 06:33:00;;;;;;;2.40;0.80;;;;;;;;;;5076892;28;20060;-79
2021/12/31 06:35:26;;;;;;;0.90;0.60;;;;;;;;;;5076263;28;20273;-79
2021/12/31 06:37:53;;;;;;;0.40;0.40;;;;;;;;;;5076340;28;20024;-78
2021/12/31 06:40:18;;;;;;;0.70;0.45;;;;;;;;;;5076226;28;20100;-78
2021/12/31 06:42:43;;;;;;;0.57;0.50;;;;;;;;;;5076510;28;20106;-79
2021/12/31 06:45:09;;;;;;;0.40;0.40;;;;;;;;;;5076926;28;20166;-78
2021/12/31 06:47:34;;;;;;;0.77;0.60;;;;;;;;;;5076408;28;20035;-78
2021/12/31 06:50:00;;;;;;;0.60;0.60;;;;;;;;;;5076058;28;20024;-78
2021/12/31 06:52:25;;;;;;;1.23;0.65;;;;;;;;;;5074026;28;20438;-78
2021/12/31 06:54:50;;;;;;;0.50;0.40;;;;;;;;;;5074583;28;20103;-78
2021/12/31 06:57:16;;;;;;;1.33;0.70;;;;;;;;;;5075280;28;20036;-78
2021/12/31 06:59:41;;;;;;;0.60;0.50;;;;;;;;;;5075222;28;20050;-79
2021/12/31 07:02:06;;;;;;;1.75;0.80;;;;;;;;;;5074362;28;20562;-80
2021/12/31 07:04:32;;;;;;;1.45;0.60;;;;;;;;;;5073269;28;20075;-79
2021/12/31 07:06:57;;;;;;;0.70;0.70;;;;;;;;;;5075358;28;20020;-79
2021/12/31 07:09:22;;;;;;;3.75;0.60;;;;;;;;;;5077183;28;20070;-77
2021/12/31 07:11:47;;;;;;;0.32;0.32;;;;;;;;;;5076156;28;20071;-78
2021/12/31 07:14:13;;;;;;;1.87;0.60;;;;;;;;;;5076364;28;20028;-78
2021/12/31 07:16:38;;;;;;;1.00;0.53;;;;;;;;;;5076179;28;20746;-77
2021/12/31 07:19:03;;;;;;;1.40;0.52;;;;;;;;;;5075564;28;20792;-79
2021/12/31 07:21:28;;;;;;;1.95;0.60;;;;;;;;;;5078717;28;20071;-78
2021/12/31 07:23:53;;;;;;;0.75;0.50;;;;;;;;;;5078519;28;20066;-81
2021/12/31 07:26:19;;;;;;;0.50;0.50;;;;;;;;;;5078722;28;20025;-78
2021/12/31 07:28:44;;;;;;;0.73;0.50;;;;;;;;;;5077531;28;20020;-78
2021/12/31 07:31:12;;;;;;;0.88;0.70;;;;;;;;;;5078612;28;20245;-78
2021/12/31 07:33:38;;;;;;;1.38;0.70;;;;;;;;;;5077909;28;20550;-77
2021/12/31 07:36:04;;;;;;;2.00;0.80;;;;;;;;;;5078021;28;20367;-79
2021/12/31 07:38:35;;;;;;;1.45;0.77;;;;;;;;;;5078482;28;20025;-77
2021/12/31 07:41:01;;;;;;;2.58;0.60;;;;;;;;;;5078808;28;20016;-80
2021/12/31 07:43:26;;;;;;;2.13;0.60;;;;;;;;;;5079095;28;20017;-77
2021/12/31 07:45:52;;;;;;;0.77;0.63;;;;;;;;;;5078913;28;20024;-79
2021/12/31 07:48:18;;;;;;;0.70;0.57;;;;;;;;;;5079111;28;20032;-77
2021/12/31 07:50:44;;;;;;;0.93;0.57;;;;;;;;;;5060101;28;20025;-77
2021/12/31 07:53:09;;;;;;;0.60;0.55;;;;;;;;;;5076953;28;20028;-78
2021/12/31 07:55:35;;;;;;;0.60;0.60;;;;;;;;;;5076891;28;20428;-79
2021/12/31 07:58:01;;;;;;;3.92;0.60;;;;;;;;;;5077908;28;20063;-76
2021/12/31 08:00:27;;;;;;;1.00;0.60;;;;;;;;;;5076160;28;20016;-78
2021/12/31 08:02:56;;;;;;;0.65;0.55;;;;;;;;;;5077443;28;20050;-78
2021/12/31 08:05:25;;;;;;;0.93;0.70;;;;;;;;;;5077940;28;20410;-79
2021/12/31 08:07:51;;;;;;;1.45;0.63;;;;;;;;;;5077561;28;20020;-78
2021/12/31 08:10:17;;;;;;;2.33;0.60;;;;;;;;;;5077615;28;20028;-77
2021/12/31 08:12:42;;;;;;;1.02;0.60;;;;;;;;;;5077346;28;20517;-79
2021/12/31 08:15:07;;;;;;;0.97;0.80;;;;;;;;;;5077436;28;20042;-78
2021/12/31 08:17:33;;;;;;;1.73;0.70;;;;;;;;;;5076644;28;20297;-78
2021/12/31 08:19:58;;;;;;;1.83;0.70;;;;;;;;;;5077811;28;20059;-78
2021/12/31 08:22:24;;;;;;;0.80;0.60;;;;;;;;;;5077354;28;20254;-78
2021/12/31 08:24:50;;;;;;;1.63;0.70;;;;;;;;;;5077309;28;20253;-78
2021/12/31 08:27:15;;;;;;;1.67;0.77;;;;;;;;;;5077074;28;20032;-78
2021/12/31 08:29:41;;;;;;;1.77;0.60;;;;;;;;;;5076739;28;20103;-78
2021/12/31 08:32:06;;;;;;;0.63;0.60;;;;;;;;;;5076980;28;20293;-80
2021/12/31 08:34:32;;;;;;;0.50;0.50;;;;;;;;;;5076724;28;20326;-78
2021/12/31 08:36:57;;;;;;;0.95;0.70;;;;;;;;;;5076506;28;20047;-79
2021/12/31 08:39:22;;;;;;;0.95;0.70;;;;;;;;;;5076418;28;20497;-79
2021/12/31 08:41:51;;;;;;;2.13;0.77;;;;;;;;;;5075973;28;20115;-80
2021/12/31 08:44:17;;;;;;;1.40;0.80;;;;;;;;;;5077549;28;20111;-79
2021/12/31 08:46:43;;;;;;;0.90;0.65;;;;;;;;;;5075978;28;20059;-78
2021/12/31 08:49:08;;;;;;;0.50;0.50;;;;;;;;;;5076844;28;20103;-79
2021/12/31 08:51:34;;;;;;;1.42;0.63;;;;;;;;;;5076911;28;20457;-79
2021/12/31 08:53:59;;;;;;;3.30;0.60;;;;;;;;;;5075205;28;20502;-78
2021/12/31 08:56:25;;;;;;;1.30;0.70;;;;;;;;;;5076715;28;20073;-79
2021/12/31 08:58:50;;;;;;;1.55;0.70;;;;;;;;;;5077137;28;20032;-78
2021/12/31 09:01:16;;;;;;;0.85;0.60;;;;;;;;;;5076349;28;20111;-79
2021/12/31 09:03:41;;;;;;;3.03;0.77;;;;;;;;;;5076199;28;20020;-78
2021/12/31 09:06:07;;;;;;;0.50;0.50;;;;;;;;;;5076434;28;20035;-77
2021/12/31 09:08:33;;;;;;;1.95;0.70;;;;;;;;;;5075952;28;20284;-77
2021/12/31 09:10:59;;;;;;;3.13;0.80;;;;;;;;;;5077111;28;20028;-78
2021/12/31 09:13:25;;;;;;;1.05;0.73;;;;;;;;;;5075877;28;20086;-78
2021/12/31 09:15:50;;;;;;;0.80;0.73;;;;;;;;;;5076089;28;20035;-78
2021/12/31 09:18:15;;;;;;;0.47;0.47;;;;;;;;;;5075430;28;20020;-77
2021/12/31 09:20:41;;;;;;;1.27;0.70;;;;;;;;;;5075545;28;20032;-78
2021/12/31 09:23:06;;;;;;;2.65;0.65;;;;;;;;;;5075045;28;20032;-79
2021/12/31 09:25:32;;;;;;;0.70;0.70;;;;;;;;;;5075427;28;20032;-78
2021/12/31 09:27:57;;;;;;;0.70;0.70;;;;;;;;;;5075346;28;20031;-79
2021/12/31 09:30:22;;;;;;;1.17;0.73;;;;;;;;;;5075199;28;20028;-79
2021/12/31 09:32:47;;;;;;;1.15;0.70;;;;;;;;;;5075913;28;20066;-78
2021/12/31 09:35:13;;;;;;;1.40;0.80;;;;;;;;;;5076940;28;20449;-79
2021/12/31 09:37:38;;;;;;;3.88;0.77;;;;;;;;;;5075374;28;20059;-77
2021/12/31 09:40:05;;;;;;;0.65;0.65;;;;;;;;;;5074750;28;20024;-77
2021/12/31 09:42:30;;;;;;;0.95;0.77;;;;;;;;;;5074253;28;20017;-77
2021/12/31 09:44:55;;;;;;;1.60;0.90;;;;;;;;;;5074985;28;20025;-77
2021/12/31 09:47:20;;;;;;;1.38;0.60;;;;;;;;;;5075376;28;20253;-77
2021/12/31 09:49:48;;;;;;;1.35;0.70;;;;;;;;;;5076387;28;20024;-78
2021/12/31 09:52:14;;;;;;;0.57;0.57;;;;;;;;;;5074425;28;20029;-80
2021/12/31 09:54:45;;;;;;;0.93;0.70;;;;;;;;;;5075510;28;20048;-78
2021/12/31 09:57:20;;;;;;;1.40;0.63;;;;;;;;;;5076476;28;20064;-77
2021/12/31 09:59:47;;;;;;;2.00;0.60;;;;;;;;;;5075831;28;20024;-78
2021/12/31 10:02:15;;;;;;;1.75;0.70;;;;;;;;;;5073673;28;20401;-78
2021/12/31 10:04:53;;;;;;;1.13;0.70;;;;;;;;;;5075243;28;20012;-78
2021/12/31 10:07:21;;;;;;;1.25;0.85;;;;;;;;;;5077287;28;20407;-79
2021/12/31 10:10:15;;;;;;;1.08;0.80;;;;;;;;;;5076401;28;20024;-80
2021/12/31 10:12:51;;;;;;;1.30;0.82;;;;;;;;;;5076092;28;20024;-78
2021/12/31 10:15:18;;;;;;;1.52;0.80;;;;;;;;;;5076978;28;20031;-79
2021/12/31 10:17:44;;;;;;;1.00;0.90;;;;;;;;;;5075477;28;20025;-78
2021/12/31 10:20:10;;;;;;;4.55;0.70;;;;;;;;;;5076205;28;20074;-79
2021/12/31 10:22:35;;;;;;;0.80;0.70;;;;;;;;;;5075923;28;20037;-79
2021/12/31 10:25:00;;;;;;;2.10;0.88;;;;;;;;;;5076695;28;20076;-79
2021/12/31 10:27:26;;;;;;;1.92;0.82;;;;;;;;;;5075551;28;20028;-79
2021/12/31 10:29:56;;;;;;;1.08;0.70;;;;;;;;;;5076786;28;20025;-78
2021/12/31 10:32:24;;;;;;;3.03;0.82;;;;;;;;;;5075658;28;20491;-78
2021/12/31 10:34:50;;;;;;;2.95;0.88;;;;;;;;;;5076403;28;20115;-79
2021/12/31 10:37:26;;;;;;;0.77;0.70;;;;;;;;;;5076289;28;20063;-79
2021/12/31 10:40:01;;;;;;;4.45;1.23;;;;;;;;;;5075195;28;20020;-79
2021/12/31 10:42:28;;;;;;;0.90;0.70;;;;;;;;;;5077092;28;20028;-77
2021/12/31 10:44:54;;;;;;;1.95;0.80;;;;;;;;;;5076766;28;20027;-78
2021/12/31 10:47:28;;;;;;;1.42;0.80;;;;;;;;;;5076518;28;20028;-78
2021/12/31 10:49:59;;;;;;;1.90;0.98;;;;;;;;;;5076397;28;20028;-79
2021/12/31 10:52:29;;;;;;;0.80;0.80;;;;;;;;;;5074727;28;20038;-79
2021/12/31 10:55:03;;;;;;;1.38;1.08;;;;;;;;;;5077338;28;20067;-78
2021/12/31 10:57:37;;;;;;;1.88;0.68;;;;;;;;;;5079632;28;20032;-79
2021/12/31 11:00:04;;;;;;;;;;;;;;;;;;5078406;28;20098;-79
2021/12/31 11:02:32;;;;;;;1.52;0.70;;;;;;;;;;5079882;28;19915;-79
2021/12/31 11:04:58;;;;;;;0.57;0.57;;;;;;;;;;5079465;28;20028;-80
2021/12/31 11:07:25;;;;;;;1.58;0.70;;;;;;;;;;5079598;28;20027;-80
2021/12/31 11:09:50;;;;;;;1.25;0.82;;;;;;;;;;5079526;28;20158;-79
2021/12/31 11:12:16;;;;;;;1.40;0.80;;;;;;;;;;5079441;28;20032;-79
2021/12/31 11:14:41;;;;;;;1.08;0.60;;;;;;;;;;5079095;28;20033;-79
2021/12/31 11:17:06;;;;;;;1.38;0.85;;;;;;;;;;5078771;28;20146;-77
2021/12/31 11:19:32;;;;;;;3.33;0.73;;;;;;;;;;5079602;28;20024;-79
2021/12/31 11:21:58;;;;;;;2.20;0.90;;;;;;;;;;5080498;28;20352;-78
2021/12/31 11:24:32;;;;;;;0.93;0.65;;;;;;;;;;5080284;28;20025;-80
2021/12/31 11:26:58;;;;;;;0.57;0.55;;;;;;;;;;5062763;28;20036;-78
2021/12/31 11:29:34;;;;;;;3.42;0.77;;;;;;;;;;5079820;28;20086;-79
2021/12/31 11:32:00;;;;;;;3.03;0.73;;;;;;;;;;5080683;28;20029;-79
2021/12/31 11:34:28;;;;;;;1.77;0.88;;;;;;;;;;5080917;28;20123;-79
2021/12/31 11:36:54;;;;;;;1.88;0.90;;;;;;;;;;5080027;28;20047;-78
2021/12/31 11:39:29;;;;;;;0.90;0.63;;;;;;;;;;5080588;28;20116;-77
2021/12/31 11:42:00;;;;;;;1.48;0.80;;;;;;;;;;5080748;28;20024;-79
2021/12/31 11:44:26;;;;;;;3.17;0.90;;;;;;;;;;5080147;28;20036;-78
2021/12/31 11:47:16;;;;;;;1.05;0.88;;;;;;;;;;5080633;28;20028;-79
2021/12/31 11:49:43;;;;;;;1.10;0.80;;;;;;;;;;5078426;28;20478;-78
2021/12/31 11:52:20;;;;;;;0.88;0.60;;;;;;;;;;5080396;28;20025;-79
2021/12/31 11:54:46;;;;;;;1.55;0.82;;;;;;;;;;5080125;28;20024;-78
2021/12/31 11:57:17;;;;;;;0.60;0.60;;;;;;;;;;5077861;28;20031;-79
2021/12/31 11:59:45;;;;;;;0.70;0.63;;;;;;;;;;5077118;28;20025;-79
2021/12/31 12:02:20;;;;;;;1.15;0.60;;;;;;;;;;5078497;28;20056;-77
2021/12/31 12:04:58;;;;;;;5.68;0.75;;;;;;;;;;5076764;28;20020;-79
2021/12/31 12:07:37;;;;;;;1.33;0.80;;;;;;;;;;5077842;28;20036;-78
2021/12/31 12:10:04;;;;;;;2.20;0.70;;;;;;;;;;5078711;28;20035;-76
2021/12/31 12:12:34;;;;;;;1.70;0.80;;;;;;;;;;5078168;28;20032;-79
2021/12/31 12:15:15;;;;;;;0.98;0.70;;;;;;;;;;5077883;28;20041;-78
2021/12/31 12:17:44;;;;;;;2.15;0.95;;;;;;;;;;5079415;28;20415;-77
2021/12/31 12:20:11;;;;;;;1.58;0.73;;;;;;;;;;5079374;28;20055;-77
2021/12/31 12:22:39;;;;;;;1.48;0.70;;;;;;;;;;5078589;28;20028;-77
2021/12/31 12:25:16;;;;;;;2.08;0.88;;;;;;;;;;5079568;28;20085;-77
2021/12/31 12:27:42;;;;;;;4.80;0.77;;;;;;;;;;5078429;28;20027;-77
2021/12/31 12:30:12;;;;;;;1.27;0.70;;;;;;;;;;5076295;28;20028;-77
2021/12/31 12:35:27;;;;;;;0.88;0.75;;;;;;;;;;5077444;28;20389;-79
2021/12/31 12:37:58;;;;;;;1.20;0.80;;;;;;;;;;5076665;28;20058;-78
2021/12/31 12:40:36;;;;;;;1.10;0.90;;;;;;;;;;5075067;28;20028;-78
2021/12/31 12:43:04;;;;;;;1.98;0.90;;;;;;;;;;5076161;28;20024;-79
2021/12/31 12:45:30;;;;;;;2.20;0.80;;;;;;;;;;5078906;28;20036;-79
2021/12/31 12:47:55;;;;;;;1.27;0.80;;;;;;;;;;5077925;28;20377;-79
2021/12/31 12:50:20;;;;;;;0.83;0.80;;;;;;;;;;5077654;28;20036;-78
2021/12/31 12:52:55;;;;;;;0.97;0.80;;;;;;;;;;5076478;28;20261;-77
2021/12/31 12:55:21;;;;;;;1.98;0.77;;;;;;;;;;5077658;28;20285;-78
2021/12/31 12:57:55;;;;;;;1.58;0.80;;;;;;;;;;5076021;28;20497;-77
2021/12/31 13:00:35;;;;;;;1.40;0.70;;;;;;;;;;5078055;28;20028;-78
2021/12/31 13:03:05;;;;;;;1.08;0.98;;;;;;;;;;5076995;28;20035;-78
2021/12/31 13:05:30;;;;;;;1.33;0.90;;;;;;;;;;5075722;28;20029;-79
2021/12/31 13:07:55;;;;;;;1.95;0.80;;;;;;;;;;5076428;28;20050;-77
2021/12/31 13:10:25;;;;;;;1.73;0.73;;;;;;;;;;5077163;28;20073;-78
2021/12/31 13:12:51;;;;;;;1.45;0.70;;;;;;;;;;5076429;28;20267;-77
2021/12/31 13:15:17;;;;;;;2.60;0.98;;;;;;;;;;5077058;28;20104;-79
2021/12/31 13:17:59;;;;;;;3.17;0.90;;;;;;;;;;5076713;28;20039;-79
2021/12/31 13:20:27;;;;;;;1.50;0.80;;;;;;;;;;5075711;28;20031;-80
2021/12/31 13:22:58;;;;;;;0.80;0.73;;;;;;;;;;5076767;28;20111;-78
2021/12/31 13:25:56;;;;;;;1.92;0.90;;;;;;;;;;5075977;28;20021;-77
2021/12/31 13:28:24;;;;;;;1.52;0.70;;;;;;;;;;5052770;28;20481;-78
2021/12/31 13:30:59;;;;;;;1.92;0.90;;;;;;;;;;5075258;28;20039;-78
2021/12/31 13:33:27;;;;;;;1.73;1.10;;;;;;;;;;5076324;28;20024;-78
2021/12/31 13:36:11;;;;;;;1.45;0.70;;;;;;;;;;5074755;28;20028;-77
2021/12/31 13:38:59;;;;;;;3.50;0.93;;;;;;;;;;5075932;28;20016;-77
2021/12/31 13:41:26;;;;;;;2.55;1.40;;;;;;;;;;5076065;28;20020;-78
2021/12/31 13:43:59;;;;;;;2.13;1.05;;;;;;;;;;5076605;28;20020;-78
2021/12/31 13:46:32;;;;;;;1.65;1.13;;;;;;;;;;5077258;28;20025;-79
2021/12/31 13:49:05;;;;;;;3.20;1.30;;;;;;;;;;5077757;28;20077;-78
2021/12/31 13:51:31;;;;;;;1.25;0.90;;;;;;;;;;5075485;28;20074;-77
2021/12/31 13:53:56;;;;;;;1.17;0.85;;;;;;;;;;5076841;28;20082;-78
2021/12/31 13:56:51;;;;;;;3.20;0.90;;;;;;;;;;5074796;28;20116;-77
2021/12/31 13:59:24;;;;;;;2.95;1.15;;;;;;;;;;5063018;28;20138;-78
2021/12/31 14:02:03;;;;;;;2.10;1.10;;;;;;;;;;5075577;28;20048;-78
2021/12/31 14:04:30;;;;;;;5.47;1.10;;;;;;;;;;5075710;28;20052;-77
2021/12/31 14:07:01;;;;;;;1.33;0.88;;;;;;;;;;5075988;28;20028;-77
2021/12/31 14:09:26;;;;;;;1.90;1.00;;;;;;;;;;5074993;28;20024;-78
2021/12/31 14:11:53;;;;;;;2.20;1.00;;;;;;;;;;5076042;28;20087;-77
2021/12/31 14:14:18;;;;;;;2.05;0.90;;;;;;;;;;5073500;28;20273;-78
2021/12/31 14:16:44;;;;;;;1.25;1.00;;;;;;;;;;5076298;28;20452;-78
2021/12/31 14:19:09;;;;;;;2.17;1.00;;;;;;;;;;5075948;28;20059;-77
2021/12/31 14:21:34;;;;;;;3.87;0.93;;;;;;;;;;5076522;28;20257;-78
2021/12/31 14:23:59;;;;;;;1.07;0.87;;;;;;;;;;5075682;28;20257;-77
2021/12/31 14:26:24;;;;;;;1.57;1.00;;;;;;;;;;5075476;28;20253;-77
2021/12/31 14:28:50;;;;;;;1.65;0.88;;;;;;;;;;5076136;28;20250;-77
2021/12/31 14:31:15;;;;;;;1.73;1.00;;;;;;;;;;5079687;28;20085;-78
2021/12/31 14:33:40;;;;;;;1.00;0.73;;;;;;;;;;5079239;28;20373;-79
2021/12/31 14:36:08;;;;;;;2.25;0.88;;;;;;;;;;5079113;28;20077;-79
2021/12/31 14:38:35;;;;;;;1.10;0.90;;;;;;;;;;5077994;28;20524;-79
2021/12/31 14:41:14;;;;;;;2.17;0.98;;;;;;;;;;5079312;28;20033;-76
2021/12/31 14:43:39;;;;;;;4.78;1.15;;;;;;;;;;5079041;28;20024;-78
2021/12/31 14:46:04;;;;;;;2.63;1.20;;;;;;;;;;5080727;28;20095;-78
2021/12/31 14:48:30;;;;;;;1.67;1.10;;;;;;;;;;5080916;28;20257;-79
2021/12/31 14:50:55;;;;;;;1.37;0.90;;;;;;;;;;5080827;28;20040;-80